Time;durP1;ratioP1;P1;durP2;ratioP2;P2;SDS_P1;SDS_P2;PMS_P1;PMS_P2;Temp;Humidity;BMP_temperature;BMP_pressure;BME280_temperature;BME280_humidity;BME280_pressure;Samples;Min_cycle;Max_cycle;Signal;HPM_P1;HPM_P2
2021/11/17 02:30:26;;;;;;;27.90;14.20;;;;;;;11.58;51.75;101554.13;6152525;22;97236;-86
2021/11/17 02:39:31;;;;;;;31.58;14.18;;;;;;;11.16;52.63;101558.75;6107352;23;96784;-88
2021/11/17 02:45:24;;;;;;;27.77;12.80;;;;;;;11.33;51.95;101550.41;6131935;23;96752;-88
2021/11/17 02:48:09;;;;;;;24.35;12.77;;;;;;;11.15;51.83;101551.75;6130720;23;96771;-88
2021/11/17 02:51:34;;;;;;;27.30;13.48;;;;;;;11.16;52.07;101555.22;6134812;23;98782;-89
2021/11/17 03:00:36;;;;;;;22.88;11.60;;;;;;;11.25;50.99;101549.72;6130732;23;97162;-89
2021/11/17 03:03:34;;;;;;;21.05;11.57;;;;;;;11.35;50.88;101545.94;6124456;23;99181;-90
2021/11/17 03:06:18;;;;;;;22.15;12.25;;;;;;;11.25;51.00;101547.06;6141722;23;96469;-88
2021/11/17 03:09:09;;;;;;;23.63;12.10;;;;;;;11.40;50.67;101551.97;6110806;23;96510;-90
2021/11/17 03:12:19;;;;;;;22.00;11.35;;;;;;;11.47;50.31;101558.84;6135244;23;97023;-88
2021/11/17 03:17:56;;;;;;;20.70;10.65;;;;;;;11.15;50.66;101557.03;6126721;23;99079;-89
2021/11/17 03:20:48;;;;;;;21.48;10.85;;;;;;;11.16;50.86;101561.38;6128254;22;96247;-88
2021/11/17 03:23:56;;;;;;;22.55;10.57;;;;;;;11.42;50.18;101554.59;6154152;22;95862;-88
2021/11/17 03:26:41;;;;;;;19.48;10.70;;;;;;;11.31;50.02;101562.78;6151568;22;99434;-87
2021/11/17 03:29:43;;;;;;;22.33;9.80;;;;;;;11.23;50.20;101554.16;6153336;22;99234;-88
2021/11/17 03:32:36;;;;;;;19.35;9.55;;;;;;;11.09;50.23;101557.16;6155205;22;95904;-87
2021/11/17 03:35:36;;;;;;;15.05;9.10;;;;;;;11.24;49.81;101557.69;6154465;22;96200;-87
2021/11/17 03:38:18;;;;;;;13.88;8.88;;;;;;;11.13;50.35;101557.97;6154177;22;96993;-87
2021/11/17 03:41:14;;;;;;;15.05;8.82;;;;;;;11.40;49.48;101556.41;6106708;22;98971;-88
2021/11/17 03:43:56;;;;;;;17.40;9.38;;;;;;;11.24;49.83;101566.50;6146465;22;96379;-88
2021/11/17 03:46:46;;;;;;;16.25;9.45;;;;;;;11.35;50.06;101548.59;6154465;22;95799;-87
2021/11/17 03:49:30;;;;;;;17.67;10.23;;;;;;;11.41;50.08;101547.56;6153327;22;96394;-89
2021/11/17 03:52:17;;;;;;;14.27;8.98;;;;;;;10.77;51.37;101551.78;6104873;23;97928;-88
2021/11/17 03:55:17;;;;;;;15.32;8.73;;;;;;;11.02;50.59;101552.09;6111527;23;96701;-88
2021/11/17 03:58:00;;;;;;;15.88;9.05;;;;;;;11.03;50.21;101543.22;6134716;23;96471;-89
2021/11/17 04:01:18;;;;;;;12.20;7.78;;;;;;;11.06;49.48;101545.78;6134495;23;99331;-90
2021/11/17 04:04:10;;;;;;;14.98;8.35;;;;;;;11.02;50.33;101544.16;6117660;23;97573;-88
2021/11/17 04:13:14;;;;;;;15.00;8.80;;;;;;;11.36;50.10;101545.00;6148677;22;99158;-89
2021/11/17 04:22:55;;;;;;;15.85;8.82;;;;;;;10.72;51.79;101551.88;6152927;22;96005;-88
2021/11/17 04:25:45;;;;;;;14.88;8.75;;;;;;;10.55;51.46;101547.91;6152615;22;97922;-88
2021/11/17 04:28:39;;;;;;;14.77;8.10;;;;;;;10.61;51.86;101543.34;6131763;22;98039;-89
2021/11/17 04:31:51;;;;;;;15.70;8.35;;;;;;;10.95;51.17;101542.56;6098655;23;95900;-87
2021/11/17 04:34:54;;;;;;;16.98;8.18;;;;;;;10.74;51.66;101549.22;6123036;22;96355;-88
2021/11/17 04:38:08;;;;;;;13.65;7.95;;;;;;;11.01;50.77;101553.84;6122209;22;98815;-87
2021/11/17 04:41:20;;;;;;;9.35;6.22;;;;;;;10.71;49.80;101542.22;6115052;22;99251;-88
2021/11/17 04:46:50;;;;;;;12.18;6.25;;;;;;;10.60;50.85;101538.97;6098968;22;100548;-89
2021/11/17 04:55:00;;;;;;;12.60;7.13;;;;;;;10.98;50.35;101550.41;6148443;23;96604;-90
2021/11/17 05:00:41;;;;;;;11.93;6.38;;;;;;;10.98;49.92;101539.81;6144969;22;99029;-90
2021/11/17 05:13:47;;;;;;;10.70;6.53;;;;;;;10.37;49.89;101546.56;6098540;23;99665;-90
2021/11/17 05:22:19;;;;;;;11.82;7.55;;;;;;;10.99;49.37;101538.91;6136991;22;97691;-87
2021/11/17 05:25:21;;;;;;;11.23;7.13;;;;;;;11.18;49.05;101541.06;6138960;22;99992;-88
2021/11/17 05:31:14;;;;;;;10.45;7.45;;;;;;;11.10;49.32;101547.44;6139976;23;96806;-89
2021/11/17 05:34:12;;;;;;;14.48;7.18;;;;;;;10.69;50.68;101541.41;6138751;23;99431;-89
2021/11/17 05:40:11;;;;;;;11.40;7.55;;;;;;;10.83;50.62;101537.56;6139538;22;96398;-89
2021/11/17 05:45:50;;;;;;;11.25;6.78;;;;;;;10.42;51.38;101539.38;6139839;22;98529;-89
2021/11/17 05:48:45;;;;;;;11.48;7.47;;;;;;;10.69;50.84;101545.81;6116571;23;100261;-89
2021/11/17 05:51:54;;;;;;;10.48;6.75;;;;;;;10.85;49.73;101533.09;6072268;23;96672;-89
2021/11/17 05:54:46;;;;;;;14.05;7.40;;;;;;;10.65;50.90;101536.22;6090655;23;96532;-88
2021/11/17 06:03:46;;;;;;;14.35;7.50;;;;;;;10.56;51.80;101550.53;6088466;23;96448;-92
2021/11/17 06:11:41;;;;;;;13.18;8.23;;;;;;;10.69;51.84;101544.06;6085963;23;96502;-94
2021/11/17 06:14:27;;;;;;;18.40;8.77;;;;;;;10.19;53.21;101549.56;6089233;23;95728;-93
2021/11/17 06:17:05;;;;;;;15.45;8.63;;;;;;;10.35;53.74;101548.34;6082518;23;97207;-88
2021/11/17 06:19:39;;;;;;;15.40;8.90;;;;;;;10.87;51.74;101561.25;6071766;23;99723;-89
2021/11/17 06:22:10;;;;;;;16.27;8.43;;;;;;;10.88;52.12;101563.00;6102687;22;99594;-89
2021/11/17 06:24:43;;;;;;;16.33;9.32;;;;;;;11.05;51.90;101554.63;6154276;22;96024;-88
2021/11/17 06:27:22;;;;;;;15.80;8.90;;;;;;;11.10;52.24;101561.53;6152427;22;96005;-88
2021/11/17 06:29:53;;;;;;;15.15;9.70;;;;;;;11.14;51.44;101555.28;6149744;22;99533;-87
2021/11/17 06:43:37;;;;;;;15.07;9.05;;;;;;;10.66;54.01;101554.69;6150376;22;98884;-89
2021/11/17 06:46:10;;;;;;;15.27;9.48;;;;;;;10.45;54.08;101551.63;6153893;22;97165;-90
2021/11/17 06:54:05;;;;;;;17.73;9.95;;;;;;;10.87;53.67;101552.44;6149226;22;96744;-92
2021/11/17 07:12:27;;;;;;;18.90;11.02;;;;;;;11.37;52.37;101565.28;6035146;22;100021;-89
2021/11/17 07:42:17;;;;;;;16.48;10.13;;;;;;;10.99;53.31;101575.94;6105517;22;99295;-92
2021/11/17 07:44:52;;;;;;;15.65;9.57;;;;;;;11.06;53.37;101572.25;6123491;23;102617;-92
2021/11/17 07:50:14;;;;;;;17.90;10.00;;;;;;;11.09;53.13;101567.72;6122084;23;96057;-87
2021/11/17 07:52:46;;;;;;;15.68;9.48;;;;;;;11.24;52.50;101571.78;6140759;22;96726;-89
2021/11/17 07:55:22;;;;;;;21.58;10.45;;;;;;;11.15;53.17;101572.03;6153526;22;96933;-91
2021/11/17 07:58:25;;;;;;;24.98;10.60;;;;;;;11.09;52.93;101580.13;6152087;22;98990;-88
2021/11/17 08:01:12;;;;;;;21.13;11.20;;;;;;;11.15;53.58;101578.19;6147273;23;96531;-90
2021/11/17 08:06:36;;;;;;;21.17;11.02;;;;;;;11.10;53.46;101576.53;6148936;22;96346;-89
2021/11/17 08:09:08;;;;;;;18.73;10.20;;;;;;;11.14;53.26;101579.09;6154163;22;97747;-88
2021/11/17 08:11:42;;;;;;;17.75;10.27;;;;;;;11.20;53.29;101575.44;6153197;22;96081;-88
2021/11/17 08:20:36;;;;;;;24.35;10.68;;;;;;;11.45;53.25;101579.19;6147566;22;96872;-92
2021/11/17 08:23:28;;;;;;;20.50;11.27;;;;;;;11.41;53.01;101569.59;6147588;23;95838;-91
2021/11/17 08:26:01;;;;;;;17.38;9.95;;;;;;;11.20;53.48;101562.19;6126271;23;96123;-92
2021/11/17 08:28:32;;;;;;;22.10;13.52;;;;;;;11.28;53.21;101562.88;6139677;23;99092;-87
2021/11/17 08:31:01;;;;;;;26.23;14.13;;;;;;;11.38;53.42;101569.66;6137195;23;97143;-88
2021/11/17 08:33:37;;;;;;;18.90;10.82;;;;;;;11.28;53.45;101562.88;6138197;23;97211;-86
2021/11/17 08:36:06;;;;;;;18.55;10.60;;;;;;;11.30;53.19;101558.41;6138504;23;96647;-87
2021/11/17 08:41:26;;;;;;;23.05;10.40;;;;;;;11.25;53.42;101554.13;6148027;22;97854;-88
2021/11/17 08:43:57;;;;;;;23.15;11.15;;;;;;;11.22;53.70;101552.47;6148053;22;96219;-87
2021/11/17 08:46:33;;;;;;;19.65;11.00;;;;;;;11.23;53.22;101553.28;6152413;22;96631;-87
2021/11/17 08:49:29;;;;;;;17.83;10.63;;;;;;;11.13;53.70;101557.97;6151030;22;98020;-86
2021/11/17 08:52:04;;;;;;;18.25;10.48;;;;;;;11.24;52.93;101555.03;6149154;22;97902;-88
2021/11/17 08:54:33;;;;;;;18.88;9.82;;;;;;;11.21;53.50;101557.78;6148322;23;96522;-88
2021/11/17 08:57:01;;;;;;;19.55;10.95;;;;;;;11.15;53.86;101562.31;6145763;23;96479;-87
2021/11/17 08:59:35;;;;;;;21.05;11.45;;;;;;;11.15;53.24;101566.75;6137365;23;96919;-89
2021/11/17 09:07:34;;;;;;;19.85;10.80;;;;;;;11.46;52.53;101557.09;6137797;23;96530;-87
2021/11/17 09:10:02;;;;;;;15.30;10.15;;;;;;;11.24;53.08;101565.63;6141153;23;101074;-89
2021/11/17 09:12:32;;;;;;;15.68;10.20;;;;;;;11.33;52.60;101560.09;6112885;23;98857;-85
2021/11/17 09:15:00;;;;;;;18.35;9.88;;;;;;;11.36;52.78;101555.59;6135853;23;96720;-86
2021/11/17 09:17:28;;;;;;;16.92;10.38;;;;;;;11.32;52.31;101559.22;6139107;23;96833;-86
2021/11/17 09:22:42;;;;;;;16.38;10.57;;;;;;;11.32;52.34;101559.22;6143256;23;98649;-89
2021/11/17 09:25:16;;;;;;;17.65;10.60;;;;;;;11.21;52.69;101556.00;6147060;23;96609;-86
2021/11/17 09:27:48;;;;;;;21.83;11.27;;;;;;;11.09;52.24;101557.16;6114246;23;96591;-87
2021/11/17 09:30:18;;;;;;;18.58;10.65;;;;;;;11.22;52.69;101563.03;6134464;23;99362;-87
2021/11/17 09:32:46;;;;;;;20.88;10.73;;;;;;;11.36;52.68;101571.47;6139547;23;98987;-88
2021/11/17 09:35:24;;;;;;;18.50;10.50;;;;;;;11.43;52.46;101549.22;6151854;23;96405;-88
2021/11/17 09:37:54;;;;;;;18.90;10.85;;;;;;;11.65;52.26;101556.59;6129574;23;96735;-88
2021/11/17 09:40:25;;;;;;;19.88;10.65;;;;;;;11.67;51.75;101557.44;6126933;22;97516;-87
2021/11/17 09:42:56;;;;;;;18.67;10.82;;;;;;;11.48;52.18;101544.72;6122800;23;97731;-88
2021/11/17 09:45:25;;;;;;;20.00;10.48;;;;;;;11.26;52.68;101545.28;6114953;23;96775;-87
2021/11/17 09:47:56;;;;;;;16.48;10.40;;;;;;;11.23;52.65;101553.28;6141736;23;96444;-89
2021/11/17 09:50:31;;;;;;;17.00;9.40;;;;;;;11.34;52.28;101541.56;6139713;23;100083;-88
2021/11/17 10:10:09;;;;;;;17.55;9.60;;;;;;;11.47;51.97;101534.16;6143623;23;98003;-92
2021/11/17 10:12:52;;;;;;;17.90;10.23;;;;;;;11.39;52.30;101544.06;6144866;23;98301;-90
2021/11/17 10:15:45;;;;;;;17.90;9.90;;;;;;;11.35;52.24;101532.72;6146892;23;97839;-91
2021/11/17 10:24:24;;;;;;;20.38;11.20;;;;;;;11.46;52.07;101521.81;6139410;22;99029;-83
2021/11/17 10:26:59;;;;;;;17.70;10.50;;;;;;;11.57;51.64;101511.81;6150272;22;98183;-88
2021/11/17 10:29:32;;;;;;;21.15;10.00;;;;;;;11.61;51.68;101508.19;6113315;23;96670;-87
2021/11/17 10:32:02;;;;;;;17.52;9.70;;;;;;;11.65;51.60;101514.25;6133942;23;96575;-87
2021/11/17 10:34:35;;;;;;;20.88;10.32;;;;;;;11.53;51.54;101510.16;6133075;23;99971;-88
2021/11/17 10:37:06;;;;;;;16.20;9.30;;;;;;;11.32;52.49;101505.44;6134011;23;99496;-87
2021/11/17 10:39:49;;;;;;;16.50;9.45;;;;;;;11.47;52.03;101521.78;6142230;23;96642;-88
2021/11/17 10:42:35;;;;;;;15.43;8.80;;;;;;;11.49;51.69;101516.44;6115076;23;96701;-87
2021/11/17 10:45:36;;;;;;;16.35;9.10;;;;;;;11.67;51.13;101517.72;6134973;23;101391;-86
2021/11/17 10:48:04;;;;;;;15.55;9.48;;;;;;;11.58;51.33;101509.13;6136046;23;99311;-85
2021/11/17 10:50:40;;;;;;;17.02;9.77;;;;;;;11.73;51.16;101512.25;6138268;23;96686;-85
2021/11/17 10:53:31;;;;;;;15.25;9.45;;;;;;;11.61;51.43;101518.78;6136587;23;96814;-84
2021/11/17 10:56:05;;;;;;;17.10;10.00;;;;;;;11.52;51.51;101511.94;6106277;23;97904;-85
2021/11/17 10:58:36;;;;;;;16.95;9.65;;;;;;;11.43;51.43;101513.97;6131471;23;96996;-85
2021/11/17 11:01:19;;;;;;;16.13;9.73;;;;;;;11.63;51.68;101513.41;6132110;23;96670;-85
2021/11/17 11:03:50;;;;;;;20.17;10.23;;;;;;;11.44;51.92;101511.28;6105684;23;96742;-85
2021/11/17 11:06:25;;;;;;;15.55;8.70;;;;;;;11.61;51.06;101497.59;6106836;23;98791;-84
2021/11/17 11:08:58;;;;;;;16.90;9.80;;;;;;;11.59;51.72;101510.88;6134125;23;98057;-86
2021/11/17 11:11:44;;;;;;;18.23;10.07;;;;;;;11.72;51.32;101502.59;6140668;23;96689;-86
2021/11/17 11:14:24;;;;;;;16.40;9.63;;;;;;;11.95;51.27;101510.75;6119621;23;97324;-85
2021/11/17 11:16:55;;;;;;;17.42;9.38;;;;;;;11.82;51.03;101504.06;6147059;23;98168;-86
2021/11/17 11:19:30;;;;;;;19.65;9.50;;;;;;;11.83;50.99;101500.53;6141029;22;98212;-85
2021/11/17 11:25:43;;;;;;;18.33;9.48;;;;;;;11.89;50.78;101514.44;6136760;23;96564;-86
2021/11/17 11:28:36;;;;;;;18.77;9.93;;;;;;;11.89;50.70;101517.09;6144190;23;99339;-84
2021/11/17 11:31:34;;;;;;;19.35;10.77;;;;;;;11.81;51.53;101520.91;6145606;23;97935;-85
2021/11/17 11:37:55;;;;;;;15.38;8.60;;;;;;;11.73;51.49;101513.13;6140921;23;96615;-85
2021/11/17 11:40:46;;;;;;;19.73;9.88;;;;;;;11.68;51.44;101528.28;6137293;23;96872;-85
2021/11/17 11:43:23;;;;;;;15.05;8.88;;;;;;;11.46;52.34;101514.75;6145867;23;101035;-86
2021/11/17 11:45:54;;;;;;;18.35;9.00;;;;;;;11.41;52.46;101514.03;6125667;23;97702;-85
2021/11/17 11:48:56;;;;;;;16.42;8.82;;;;;;;11.42;52.69;101507.78;6152236;22;96637;-89
2021/11/17 11:51:52;;;;;;;14.90;8.75;;;;;;;11.46;52.28;101511.25;6092037;23;97478;-88
2021/11/17 11:54:27;;;;;;;17.17;8.50;;;;;;;11.61;51.58;101512.63;6146782;23;96535;-89
2021/11/17 11:57:37;;;;;;;13.40;8.23;;;;;;;11.71;51.39;101501.72;6119882;23;96500;-90
2021/11/17 12:00:11;;;;;;;14.70;8.45;;;;;;;11.76;51.55;101505.13;6006182;23;96321;-91
2021/11/17 12:02:47;;;;;;;12.80;8.52;;;;;;;11.82;51.26;101506.72;5982825;23;97610;-85
2021/11/17 12:05:26;;;;;;;15.43;8.40;;;;;;;11.90;51.09;101504.72;6047657;22;97937;-89
2021/11/17 12:07:57;;;;;;;15.63;8.57;;;;;;;11.80;51.28;101505.91;6125068;22;95907;-88
2021/11/17 12:10:30;;;;;;;14.50;8.15;;;;;;;11.83;50.70;101509.34;6125397;22;98112;-82
2021/11/17 12:16:02;;;;;;;18.00;8.15;;;;;;;11.11;52.25;101491.88;6118404;22;98915;-88
2021/11/17 12:18:55;;;;;;;17.08;8.90;;;;;;;11.51;52.42;101506.69;6123374;22;96542;-90
2021/11/17 12:21:29;;;;;;;18.88;9.63;;;;;;;11.52;52.07;101497.84;6094140;23;96048;-88
2021/11/17 12:24:16;;;;;;;14.32;9.30;;;;;;;11.58;51.74;101490.59;6094906;23;97146;-86
2021/11/17 12:26:50;;;;;;;21.33;9.57;;;;;;;11.18;52.08;101503.16;6095016;23;98372;-87
2021/11/17 12:29:32;;;;;;;15.02;8.93;;;;;;;11.41;52.62;101506.09;6094888;23;96656;-89
2021/11/17 12:34:54;;;;;;;;;;;;;;;11.99;50.24;101493.88;6047125;23;96841;-86
2021/11/17 12:37:37;;;;;;;12.27;7.30;;;;;;;12.16;49.57;101491.59;6095116;23;97147;-90
2021/11/17 12:46:50;;;;;;;13.00;7.78;;;;;;;11.94;49.63;101480.78;6087472;23;97021;-90
2021/11/17 12:49:22;;;;;;;11.80;6.88;;;;;;;11.83;50.06;101496.09;6059746;23;99142;-90
2021/11/17 12:51:59;;;;;;;12.68;6.50;;;;;;;12.08;49.12;101498.88;6086304;23;96506;-90
2021/11/17 12:54:30;;;;;;;9.82;5.97;;;;;;;12.20;49.08;101493.25;6084197;23;96671;-91
2021/11/17 12:57:03;;;;;;;11.23;6.80;;;;;;;12.24;48.26;101488.72;6120050;23;101615;-89
2021/11/17 13:02:47;;;;;;;10.00;6.43;;;;;;;11.94;49.24;101488.72;6113110;23;96517;-87
2021/11/17 13:05:43;;;;;;;9.18;6.05;;;;;;;12.00;49.34;101498.28;6068081;23;96686;-90
2021/11/17 13:08:18;;;;;;;11.55;6.28;;;;;;;12.11;49.24;101493.50;6119558;23;98501;-87
2021/11/17 13:10:49;;;;;;;11.45;6.15;;;;;;;12.23;49.35;101490.50;6093299;23;97350;-87
2021/11/17 13:13:25;;;;;;;9.63;6.25;;;;;;;12.20;49.22;101495.91;6120172;23;96473;-89
2021/11/17 13:16:07;;;;;;;;;;;;;;;12.20;49.19;101493.25;6121772;23;97712;-90
2021/11/17 13:21:31;;;;;;;13.75;6.10;;;;;;;12.17;49.21;101488.03;6121813;23;96351;-90
2021/11/17 13:24:35;;;;;;;10.82;6.40;;;;;;;12.18;49.20;101494.19;6099213;23;97677;-88
2021/11/17 13:27:45;;;;;;;9.65;6.32;;;;;;;12.27;48.87;101494.75;6123412;23;95988;-88
2021/11/17 13:30:34;;;;;;;8.43;5.97;;;;;;;12.27;48.95;101494.75;6004801;23;96579;-86
2021/11/17 13:33:27;;;;;;;10.70;6.63;;;;;;;12.28;48.61;101499.16;6117700;23;98116;-90
2021/11/17 13:36:22;;;;;;;11.93;6.63;;;;;;;12.50;48.74;101499.38;6110477;23;96655;-90
2021/11/17 13:38:55;;;;;;;10.93;6.35;;;;;;;12.38;48.96;101499.75;6108827;23;96687;-89
2021/11/17 13:41:55;;;;;;;12.75;6.55;;;;;;;12.09;49.53;101484.72;6086338;23;97469;-90
2021/11/17 13:44:26;;;;;;;12.25;6.95;;;;;;;12.34;48.97;101487.50;6108307;23;98140;-90
2021/11/17 13:46:59;;;;;;;10.95;6.82;;;;;;;12.20;49.56;101492.38;6081538;23;96650;-91
2021/11/17 13:50:12;;;;;;;11.48;7.20;;;;;;;12.30;48.91;101473.50;6122382;23;96501;-88
2021/11/17 13:52:42;;;;;;;12.13;7.32;;;;;;;12.30;49.41;101481.44;6123524;23;97039;-91
2021/11/17 13:58:04;;;;;;;11.80;8.13;;;;;;;12.38;49.14;101482.06;6105815;23;96459;-90
2021/11/17 14:00:58;;;;;;;14.10;7.70;;;;;;;12.33;48.97;101489.31;6111390;23;96669;-90
2021/11/17 14:06:24;;;;;;;14.15;7.10;;;;;;;12.33;49.07;101464.59;6111273;23;98517;-90
2021/11/17 14:08:51;;;;;;;12.82;7.20;;;;;;;12.31;49.25;101469.94;6088843;23;96720;-90
2021/11/17 14:11:33;;;;;;;15.00;7.43;;;;;;;12.16;49.44;101464.22;6113703;23;96745;-91
2021/11/17 14:17:04;;;;;;;14.55;7.50;;;;;;;12.41;48.62;101459.03;6113281;23;99463;-89
2021/11/17 14:19:33;;;;;;;15.20;7.22;;;;;;;12.55;48.15;101468.28;6118581;23;96556;-90
2021/11/17 14:22:02;;;;;;;14.90;7.15;;;;;;;12.21;49.41;101462.28;6113535;23;96797;-90
2021/11/17 14:30:11;;;;;;;10.88;7.13;;;;;;;12.51;49.13;101465.78;6090064;23;96810;-90
2021/11/17 14:32:55;;;;;;;12.30;6.47;;;;;;;12.51;48.92;101471.09;6117439;23;96857;-90
2021/11/17 14:35:38;;;;;;;10.00;6.53;;;;;;;12.37;49.26;101466.22;6113149;23;100761;-88
2021/11/17 14:43:45;;;;;;;10.95;6.50;;;;;;;12.15;49.09;101479.25;6110290;23;96830;-92
2021/11/17 14:46:26;;;;;;;9.32;6.65;;;;;;;12.18;49.98;101473.88;6114079;23;96929;-91
2021/11/17 14:51:42;;;;;;;17.00;7.40;;;;;;;12.35;49.49;101482.16;6110121;23;96776;-90
2021/11/17 14:54:20;;;;;;;10.88;6.68;;;;;;;12.28;49.85;101475.31;6115316;23;96715;-89
2021/11/17 14:56:49;;;;;;;11.77;6.78;;;;;;;12.17;50.42;101488.03;6085587;23;98969;-89
2021/11/17 14:59:23;;;;;;;10.80;6.22;;;;;;;12.05;51.17;101491.03;6091500;23;98309;-90
2021/11/17 15:01:51;;;;;;;12.07;6.60;;;;;;;12.21;51.61;101489.66;6091612;23;96162;-89
2021/11/17 15:04:19;;;;;;;10.95;7.00;;;;;;;12.21;51.50;101494.94;6088662;23;96695;-90
2021/11/17 15:09:36;;;;;;;11.90;6.95;;;;;;;12.18;52.21;101484.47;6087925;23;98795;-90
2021/11/17 15:15:18;;;;;;;15.10;7.13;;;;;;;12.18;52.30;101486.25;6081974;23;96811;-90
2021/11/17 15:20:46;;;;;;;13.48;7.00;;;;;;;11.96;53.12;101483.34;6086692;23;98495;-89
2021/11/17 15:23:19;;;;;;;;;;;;;;;11.93;53.09;101481.69;6086383;23;96489;-91
2021/11/17 15:26:01;;;;;;;11.02;7.20;;;;;;;11.90;53.29;101471.16;6090989;23;96579;-86
2021/11/17 15:28:36;;;;;;;12.18;7.30;;;;;;;11.90;53.38;101472.94;6088486;23;98999;-86
2021/11/17 15:31:13;;;;;;;11.65;6.53;;;;;;;11.76;53.73;101461.88;6089465;23;98831;-87
2021/11/17 15:33:47;;;;;;;9.25;6.15;;;;;;;11.67;53.87;101463.00;6086211;23;96494;-87
2021/11/17 15:36:18;;;;;;;12.73;6.90;;;;;;;11.72;54.18;101457.56;6087663;23;96691;-90
2021/11/17 15:38:52;;;;;;;12.05;6.57;;;;;;;11.45;55.29;101449.50;6089073;23;98276;-89
2021/11/17 15:47:12;;;;;;;8.80;5.72;;;;;;;11.92;53.89;101455.25;6076726;23;96957;-88
2021/11/17 15:49:43;;;;;;;11.75;6.38;;;;;;;11.97;53.61;101455.97;6079759;23;99804;-89
2021/11/17 15:52:31;;;;;;;9.35;6.00;;;;;;;11.90;53.59;101451.75;6079759;23;99383;-89
2021/11/17 15:54:58;;;;;;;16.20;5.97;;;;;;;11.46;55.28;101442.44;6078692;23;96695;-87
2021/11/17 15:57:28;;;;;;;9.35;6.30;;;;;;;11.84;54.65;101451.94;6081344;23;96647;-90
2021/11/17 15:59:57;;;;;;;9.15;6.40;;;;;;;11.78;53.98;101462.72;6070167;23;97345;-85
2021/11/17 16:02:24;;;;;;;10.95;5.53;;;;;;;11.96;53.60;101462.19;6094797;23;96845;-88
2021/11/17 16:04:54;;;;;;;10.50;6.00;;;;;;;11.87;53.89;101459.81;6095556;23;97702;-87
2021/11/17 16:13:01;;;;;;;8.15;5.35;;;;;;;11.98;53.12;101481.53;6093233;23;97653;-87
2021/11/17 16:15:30;;;;;;;8.75;5.82;;;;;;;11.86;53.94;101477.47;6070198;23;96275;-86
2021/11/17 16:21:16;;;;;;;9.45;5.85;;;;;;;12.07;52.82;101491.88;6123543;23;99673;-88
2021/11/17 16:45:26;;;;;;;9.10;5.57;;;;;;;12.19;52.71;101523.31;5982351;22;2540302;-92
2021/11/17 16:50:33;;;;;;;12.32;6.25;;;;;;;12.14;52.83;101533.13;6103515;22;96929;-89
2021/11/17 16:53:10;;;;;;;10.07;5.20;;;;;;;12.15;53.11;101532.22;6126136;23;96350;-88
2021/11/17 16:55:51;;;;;;;9.18;5.78;;;;;;;12.29;52.66;101535.34;6119236;23;98795;-89
2021/11/17 16:58:22;;;;;;;9.27;5.63;;;;;;;11.92;53.35;101534.69;6119471;23;98202;-88
2021/11/17 17:06:53;;;;;;;9.18;4.80;;;;;;;12.28;52.62;101536.25;6126297;22;99070;-82
2021/11/17 17:09:25;;;;;;;10.00;5.82;;;;;;;12.13;53.61;101549.97;6122226;23;96633;-91
2021/11/17 17:14:40;;;;;;;10.25;6.13;;;;;;;12.34;53.30;101541.38;6126261;22;97177;-88
2021/11/17 17:20:01;;;;;;;11.80;6.60;;;;;;;12.22;53.77;101549.69;6124339;23;96806;-87
2021/11/17 17:22:31;;;;;;;11.95;6.13;;;;;;;12.13;54.47;101552.63;6131014;22;96271;-88
2021/11/17 17:24:59;;;;;;;11.88;6.40;;;;;;;12.49;53.74;101544.47;6102333;23;96521;-88
2021/11/17 17:27:32;;;;;;;9.98;7.00;;;;;;;12.38;54.39;101540.38;6127302;22;98290;-89
2021/11/17 17:38:44;;;;;;;15.48;7.45;;;;;;;12.53;54.49;101567.34;6123755;22;99180;-89
2021/11/17 17:41:29;;;;;;;;;;;;;;;;;;;;;
2021/11/17 17:47:18;;;;;;;13.55;8.20;;;;;;;12.68;54.56;101582.75;6041703;22;100414;-86
2021/11/17 17:49:57;;;;;;;16.27;8.77;;;;;;;12.61;54.74;101586.50;6109975;23;98893;-86
2021/11/17 17:57:50;;;;;;;14.82;9.05;;;;;;;12.26;55.93;101583.16;6123331;22;96519;-86
2021/11/17 18:03:02;;;;;;;15.57;9.48;;;;;;;12.42;56.43;101599.47;6123611;22;98512;-87
2021/11/17 18:05:48;;;;;;;16.00;9.45;;;;;;;11.99;57.39;101605.13;6125340;22;96490;-87
2021/11/17 18:08:21;;;;;;;15.63;9.70;;;;;;;12.02;58.09;101612.97;6124654;22;95972;-88
2021/11/17 18:10:52;;;;;;;16.80;9.50;;;;;;;12.21;58.00;101602.72;6120640;23;98162;-87
2021/11/17 18:16:04;;;;;;;19.45;10.38;;;;;;;12.40;57.65;101608.38;6110304;23;96665;-87
2021/11/17 18:18:37;;;;;;;17.60;10.02;;;;;;;12.26;58.38;101612.31;6113288;23;96739;-86
2021/11/17 18:21:13;;;;;;;17.75;10.23;;;;;;;12.43;57.90;101624.19;6114900;23;99957;-87
2021/11/17 18:23:55;;;;;;;19.03;11.13;;;;;;;12.24;57.61;101616.78;6114018;23;99886;-87
2021/11/17 18:26:27;;;;;;;21.02;10.10;;;;;;;12.23;58.64;101625.63;6095583;23;95846;-89
2021/11/17 18:28:59;;;;;;;19.83;10.50;;;;;;;12.52;58.24;101623.91;6098746;22;96645;-83
2021/11/17 18:31:30;;;;;;;17.83;10.57;;;;;;;12.53;58.26;101626.53;6121934;22;98144;-89
2021/11/17 18:33:58;;;;;;;18.67;11.13;;;;;;;12.65;58.08;101634.13;6124084;22;98862;-84
2021/11/17 18:36:40;;;;;;;23.58;11.63;;;;;;;12.62;58.44;101641.28;6098552;23;96248;-87
2021/11/17 18:39:12;;;;;;;18.77;11.30;;;;;;;12.49;58.25;101632.81;6124143;22;95879;-89
2021/11/17 18:41:46;;;;;;;21.00;12.60;;;;;;;12.62;58.49;101638.63;6089330;23;97713;-87
2021/11/17 18:44:21;;;;;;;19.50;11.20;;;;;;;12.51;59.05;101635.44;6111211;23;100004;-86
2021/11/17 18:46:51;;;;;;;21.92;12.90;;;;;;;12.29;59.47;101641.34;6055482;23;96662;-88
2021/11/17 18:49:19;;;;;;;24.75;13.40;;;;;;;12.33;59.98;101636.84;6057123;23;96896;-89
2021/11/17 18:52:11;;;;;;;23.13;12.57;;;;;;;12.40;59.90;101645.50;6079621;23;100435;-89
2021/11/17 18:57:33;;;;;;;20.95;13.40;;;;;;;12.52;58.94;101637.19;6084062;23;96499;-89
2021/11/17 19:05:35;;;;;;;26.60;14.00;;;;;;;12.49;59.52;101648.72;6043382;23;99432;-86
2021/11/17 19:08:05;;;;;;;25.90;14.43;;;;;;;12.76;58.50;101652.34;6092916;23;95948;-87
2021/11/17 19:10:57;;;;;;;24.85;14.48;;;;;;;12.63;58.96;101658.94;6091348;23;96458;-86
2021/11/17 19:13:40;;;;;;;27.23;14.23;;;;;;;12.74;58.46;101660.34;6087449;23;96618;-87
2021/11/17 19:16:07;;;;;;;24.50;13.55;;;;;;;12.61;58.58;101663.41;6091811;23;99831;-88
2021/11/17 19:18:44;;;;;;;26.95;14.40;;;;;;;12.82;57.99;101660.13;6067013;23;95965;-87
2021/11/17 19:26:56;;;;;;;26.83;14.60;;;;;;;12.82;58.20;101672.50;6091465;23;96633;-88
2021/11/17 19:29:24;;;;;;;28.20;15.23;;;;;;;12.55;58.37;101677.72;6093412;23;97169;-88
2021/11/17 19:31:53;;;;;;;32.95;14.95;;;;;;;12.33;59.66;101677.47;6068149;23;96739;-88
2021/11/17 19:37:08;;;;;;;26.50;13.68;;;;;;;12.47;58.84;101678.88;6089569;23;96378;-86
2021/11/17 19:39:35;;;;;;;32.85;15.35;;;;;;;12.49;59.31;101679.66;6080911;23;97062;-85
2021/11/17 19:42:11;;;;;;;25.50;14.25;;;;;;;12.53;58.52;101676.03;6087516;23;96476;-86
2021/11/17 19:44:40;;;;;;;26.07;13.93;;;;;;;12.65;58.37;101676.53;6090530;23;99496;-87
2021/11/17 19:50:00;;;;;;;27.10;15.18;;;;;;;12.65;58.13;101689.81;6091189;23;96414;-88
2021/11/17 20:00:44;;;;;;;28.92;13.70;;;;;;;12.55;58.66;101701.56;6077616;23;97196;-85
2021/11/17 20:03:14;;;;;;;29.38;13.93;;;;;;;12.62;58.38;101707.56;6076466;23;97063;-85
2021/11/17 20:05:43;;;;;;;30.65;15.15;;;;;;;12.29;59.41;101707.59;6077362;23;100590;-88
2021/11/17 20:08:10;;;;;;;27.83;14.45;;;;;;;12.60;58.28;101704.13;6078726;23;96814;-89
2021/11/17 20:10:40;;;;;;;27.52;13.18;;;;;;;12.80;57.97;101711.50;6080361;23;97113;-88
2021/11/17 20:13:16;;;;;;;32.55;15.27;;;;;;;12.82;57.36;101707.84;6081655;23;96686;-87
2021/11/17 20:15:47;;;;;;;28.35;14.23;;;;;;;12.76;57.64;101706.25;6059543;23;99608;-86
2021/11/17 20:18:16;;;;;;;27.80;14.30;;;;;;;12.91;57.06;101710.25;6080429;23;97803;-85
2021/11/17 20:23:35;;;;;;;29.35;14.82;;;;;;;13.01;56.63;101722.31;6074482;23;96606;-86
2021/11/17 20:26:12;;;;;;;29.00;14.57;;;;;;;12.92;56.67;101712.00;6077560;23;97858;-86